sensor_id;sensor_type;location;lat;lon;timestamp;P1;durP1;ratioP1;P2;durP2;ratioP2
5279;SDS011;2663;53.588;10.010;2022-09-14T00:00:49;7.60;;;1.77;;
5279;SDS011;2663;53.588;10.010;2022-09-14T00:03:36;8.10;;;1.87;;
5279;SDS011;2663;53.588;10.010;2022-09-14T00:06:07;7.07;;;1.20;;
5279;SDS011;2663;53.588;10.010;2022-09-14T00:08:36;11.70;;;1.97;;
5279;SDS011;2663;53.588;10.010;2022-09-14T00:11:09;12.70;;;2.07;;
5279;SDS011;2663;53.588;10.010;2022-09-14T00:13:38;11.60;;;1.30;;
5279;SDS011;2663;53.588;10.010;2022-09-14T00:16:08;16.07;;;1.50;;
5279;SDS011;2663;53.588;10.010;2022-09-14T00:18:39;10.40;;;1.80;;
5279;SDS011;2663;53.588;10.010;2022-09-14T00:21:06;8.43;;;1.43;;
5279;SDS011;2663;53.588;10.010;2022-09-14T00:23:35;10.10;;;1.60;;
5279;SDS011;2663;53.588;10.010;2022-09-14T00:26:03;8.10;;;1.47;;
5279;SDS011;2663;53.588;10.010;2022-09-14T00:28:36;6.17;;;1.70;;
5279;SDS011;2663;53.588;10.010;2022-09-14T00:31:07;4.77;;;1.37;;
5279;SDS011;2663;53.588;10.010;2022-09-14T00:33:35;12.60;;;1.60;;
5279;SDS011;2663;53.588;10.010;2022-09-14T00:36:04;5.23;;;1.40;;
5279;SDS011;2663;53.588;10.010;2022-09-14T00:38:32;8.03;;;1.90;;
5279;SDS011;2663;53.588;10.010;2022-09-14T00:41:00;8.83;;;1.90;;
5279;SDS011;2663;53.588;10.010;2022-09-14T00:43:28;9.40;;;2.17;;
5279;SDS011;2663;53.588;10.010;2022-09-14T00:45:55;5.23;;;1.10;;
5279;SDS011;2663;53.588;10.010;2022-09-14T00:48:25;15.13;;;2.00;;
5279;SDS011;2663;53.588;10.010;2022-09-14T00:50:52;10.20;;;2.10;;
5279;SDS011;2663;53.588;10.010;2022-09-14T00:53:19;6.47;;;1.60;;
5279;SDS011;2663;53.588;10.010;2022-09-14T00:55:47;14.27;;;1.70;;
5279;SDS011;2663;53.588;10.010;2022-09-14T00:58:14;5.20;;;2.00;;
5279;SDS011;2663;53.588;10.010;2022-09-14T01:00:40;5.33;;;1.50;;
5279;SDS011;2663;53.588;10.010;2022-09-14T01:03:07;13.10;;;1.47;;
5279;SDS011;2663;53.588;10.010;2022-09-14T01:05:45;7.80;;;2.17;;
5279;SDS011;2663;53.588;10.010;2022-09-14T01:16:45;12.30;;;2.00;;
5279;SDS011;2663;53.588;10.010;2022-09-14T01:22:16;12.57;;;1.40;;
5279;SDS011;2663;53.588;10.010;2022-09-14T01:24:48;17.13;;;2.07;;
5279;SDS011;2663;53.588;10.010;2022-09-14T01:30:08;4.03;;;1.63;;
5279;SDS011;2663;53.588;10.010;2022-09-14T01:33:01;15.13;;;2.20;;
5279;SDS011;2663;53.588;10.010;2022-09-14T01:35:42;14.40;;;1.90;;
5279;SDS011;2663;53.588;10.010;2022-09-14T01:38:17;9.27;;;1.50;;
5279;SDS011;2663;53.588;10.010;2022-09-14T01:40:50;5.30;;;1.67;;
5279;SDS011;2663;53.588;10.010;2022-09-14T01:43:25;7.57;;;1.50;;
5279;SDS011;2663;53.588;10.010;2022-09-14T01:46:09;5.93;;;1.67;;
5279;SDS011;2663;53.588;10.010;2022-09-14T01:51:25;14.20;;;1.90;;
5279;SDS011;2663;53.588;10.010;2022-09-14T01:54:01;15.67;;;2.50;;
5279;SDS011;2663;53.588;10.010;2022-09-14T01:56:40;9.33;;;1.60;;
5279;SDS011;2663;53.588;10.010;2022-09-14T01:59:14;4.67;;;1.40;;
5279;SDS011;2663;53.588;10.010;2022-09-14T02:04:20;10.50;;;1.67;;
5279;SDS011;2663;53.588;10.010;2022-09-14T02:06:54;6.70;;;2.07;;
5279;SDS011;2663;53.588;10.010;2022-09-14T02:09:21;7.50;;;2.30;;
5279;SDS011;2663;53.588;10.010;2022-09-14T02:11:52;17.67;;;2.40;;
5279;SDS011;2663;53.588;10.010;2022-09-14T02:14:20;16.03;;;2.50;;
5279;SDS011;2663;53.588;10.010;2022-09-14T02:16:47;12.23;;;1.77;;
5279;SDS011;2663;53.588;10.010;2022-09-14T02:19:14;3.83;;;1.73;;
5279;SDS011;2663;53.588;10.010;2022-09-14T02:21:46;6.40;;;1.70;;
5279;SDS011;2663;53.588;10.010;2022-09-14T02:24:13;10.10;;;1.70;;
5279;SDS011;2663;53.588;10.010;2022-09-14T02:26:41;3.77;;;1.50;;
5279;SDS011;2663;53.588;10.010;2022-09-14T02:29:08;4.93;;;2.70;;
5279;SDS011;2663;53.588;10.010;2022-09-14T02:34:38;8.40;;;1.30;;
5279;SDS011;2663;53.588;10.010;2022-09-14T02:37:38;6.90;;;1.50;;
5279;SDS011;2663;53.588;10.010;2022-09-14T02:46:43;8.20;;;1.57;;
5279;SDS011;2663;53.588;10.010;2022-09-14T02:49:19;10.13;;;1.77;;
5279;SDS011;2663;53.588;10.010;2022-09-14T02:52:10;6.53;;;1.70;;
5279;SDS011;2663;53.588;10.010;2022-09-14T02:54:51;8.57;;;1.73;;
5279;SDS011;2663;53.588;10.010;2022-09-14T02:57:25;5.13;;;1.40;;
5279;SDS011;2663;53.588;10.010;2022-09-14T02:59:53;6.00;;;2.00;;
5279;SDS011;2663;53.588;10.010;2022-09-14T03:02:20;7.60;;;1.90;;
5279;SDS011;2663;53.588;10.010;2022-09-14T03:04:47;13.43;;;2.10;;
5279;SDS011;2663;53.588;10.010;2022-09-14T03:07:14;10.40;;;1.97;;
5279;SDS011;2663;53.588;10.010;2022-09-14T03:09:41;6.00;;;1.70;;
5279;SDS011;2663;53.588;10.010;2022-09-14T03:12:07;13.00;;;2.33;;
5279;SDS011;2663;53.588;10.010;2022-09-14T03:14:34;12.93;;;2.20;;
5279;SDS011;2663;53.588;10.010;2022-09-14T03:17:00;12.27;;;3.03;;
5279;SDS011;2663;53.588;10.010;2022-09-14T03:19:27;5.90;;;1.80;;
5279;SDS011;2663;53.588;10.010;2022-09-14T03:21:54;13.77;;;1.77;;
5279;SDS011;2663;53.588;10.010;2022-09-14T03:24:20;9.70;;;1.80;;
5279;SDS011;2663;53.588;10.010;2022-09-14T03:26:47;9.10;;;1.53;;
5279;SDS011;2663;53.588;10.010;2022-09-14T03:29:17;6.23;;;1.20;;
5279;SDS011;2663;53.588;10.010;2022-09-14T03:31:43;7.63;;;1.97;;
5279;SDS011;2663;53.588;10.010;2022-09-14T03:34:10;8.90;;;1.47;;
5279;SDS011;2663;53.588;10.010;2022-09-14T03:36:37;6.63;;;1.33;;
5279;SDS011;2663;53.588;10.010;2022-09-14T03:39:03;8.73;;;1.60;;
5279;SDS011;2663;53.588;10.010;2022-09-14T03:41:30;11.37;;;2.53;;
5279;SDS011;2663;53.588;10.010;2022-09-14T03:43:57;12.13;;;2.83;;
5279;SDS011;2663;53.588;10.010;2022-09-14T03:46:23;8.50;;;1.60;;
5279;SDS011;2663;53.588;10.010;2022-09-14T03:48:51;7.30;;;2.03;;
5279;SDS011;2663;53.588;10.010;2022-09-14T03:51:20;8.73;;;1.67;;
5279;SDS011;2663;53.588;10.010;2022-09-14T03:53:47;7.90;;;2.00;;
5279;SDS011;2663;53.588;10.010;2022-09-14T03:56:17;15.73;;;2.00;;
5279;SDS011;2663;53.588;10.010;2022-09-14T03:58:46;10.20;;;1.70;;
5279;SDS011;2663;53.588;10.010;2022-09-14T04:01:16;12.50;;;1.60;;
5279;SDS011;2663;53.588;10.010;2022-09-14T04:03:45;7.33;;;2.00;;
5279;SDS011;2663;53.588;10.010;2022-09-14T04:06:13;5.73;;;1.83;;
5279;SDS011;2663;53.588;10.010;2022-09-14T04:08:41;7.43;;;2.13;;
5279;SDS011;2663;53.588;10.010;2022-09-14T04:11:10;5.20;;;1.90;;
5279;SDS011;2663;53.588;10.010;2022-09-14T04:13:42;7.03;;;1.87;;
5279;SDS011;2663;53.588;10.010;2022-09-14T04:16:10;11.67;;;2.90;;
5279;SDS011;2663;53.588;10.010;2022-09-14T04:18:37;11.73;;;1.93;;
5279;SDS011;2663;53.588;10.010;2022-09-14T04:21:05;7.03;;;1.70;;
5279;SDS011;2663;53.588;10.010;2022-09-14T04:23:34;10.83;;;2.80;;
5279;SDS011;2663;53.588;10.010;2022-09-14T04:26:22;8.00;;;2.07;;
5279;SDS011;2663;53.588;10.010;2022-09-14T04:28:54;4.57;;;1.73;;
5279;SDS011;2663;53.588;10.010;2022-09-14T04:31:21;4.60;;;1.67;;
5279;SDS011;2663;53.588;10.010;2022-09-14T04:33:49;9.03;;;2.17;;
5279;SDS011;2663;53.588;10.010;2022-09-14T04:36:18;9.63;;;1.87;;
5279;SDS011;2663;53.588;10.010;2022-09-14T04:38:47;12.00;;;2.17;;
5279;SDS011;2663;53.588;10.010;2022-09-14T04:41:18;4.23;;;1.50;;
5279;SDS011;2663;53.588;10.010;2022-09-14T04:43:46;7.43;;;2.50;;
5279;SDS011;2663;53.588;10.010;2022-09-14T04:46:16;6.50;;;2.20;;
5279;SDS011;2663;53.588;10.010;2022-09-14T04:48:44;6.30;;;1.67;;
5279;SDS011;2663;53.588;10.010;2022-09-14T04:51:13;5.63;;;1.70;;
5279;SDS011;2663;53.588;10.010;2022-09-14T04:53:45;11.93;;;2.07;;
5279;SDS011;2663;53.588;10.010;2022-09-14T04:56:15;5.00;;;1.57;;
5279;SDS011;2663;53.588;10.010;2022-09-14T04:58:43;15.20;;;1.97;;
5279;SDS011;2663;53.588;10.010;2022-09-14T05:01:17;7.33;;;2.10;;
5279;SDS011;2663;53.588;10.010;2022-09-14T05:03:45;7.13;;;2.13;;
5279;SDS011;2663;53.588;10.010;2022-09-14T05:06:16;4.50;;;1.83;;
5279;SDS011;2663;53.588;10.010;2022-09-14T05:08:45;4.97;;;2.27;;
5279;SDS011;2663;53.588;10.010;2022-09-14T05:11:14;8.40;;;2.30;;
5279;SDS011;2663;53.588;10.010;2022-09-14T05:13:42;6.83;;;2.77;;
5279;SDS011;2663;53.588;10.010;2022-09-14T05:18:43;6.20;;;2.23;;
5279;SDS011;2663;53.588;10.010;2022-09-14T05:21:11;6.97;;;2.17;;
5279;SDS011;2663;53.588;10.010;2022-09-14T05:23:40;13.93;;;4.07;;
5279;SDS011;2663;53.588;10.010;2022-09-14T05:26:07;9.13;;;2.27;;
5279;SDS011;2663;53.588;10.010;2022-09-14T05:28:34;12.40;;;2.13;;
5279;SDS011;2663;53.588;10.010;2022-09-14T05:31:08;14.40;;;2.60;;
5279;SDS011;2663;53.588;10.010;2022-09-14T05:33:36;10.40;;;2.87;;
5279;SDS011;2663;53.588;10.010;2022-09-14T05:36:04;4.50;;;2.37;;
5279;SDS011;2663;53.588;10.010;2022-09-14T05:38:33;11.97;;;3.17;;
5279;SDS011;2663;53.588;10.010;2022-09-14T05:41:03;18.93;;;2.53;;
5279;SDS011;2663;53.588;10.010;2022-09-14T05:43:30;8.93;;;1.97;;
5279;SDS011;2663;53.588;10.010;2022-09-14T05:46:01;6.67;;;1.90;;
5279;SDS011;2663;53.588;10.010;2022-09-14T05:48:33;12.87;;;1.87;;
5279;SDS011;2663;53.588;10.010;2022-09-14T05:51:02;9.53;;;1.90;;
5279;SDS011;2663;53.588;10.010;2022-09-14T05:53:30;6.80;;;2.10;;
5279;SDS011;2663;53.588;10.010;2022-09-14T05:56:07;4.50;;;2.00;;
5279;SDS011;2663;53.588;10.010;2022-09-14T05:58:36;9.27;;;1.73;;
5279;SDS011;2663;53.588;10.010;2022-09-14T06:03:34;7.53;;;1.80;;
5279;SDS011;2663;53.588;10.010;2022-09-14T06:06:01;14.60;;;2.87;;
5279;SDS011;2663;53.588;10.010;2022-09-14T06:08:30;12.23;;;3.10;;
5279;SDS011;2663;53.588;10.010;2022-09-14T06:11:01;5.30;;;1.90;;
5279;SDS011;2663;53.588;10.010;2022-09-14T06:13:29;6.77;;;2.10;;
5279;SDS011;2663;53.588;10.010;2022-09-14T06:15:59;13.73;;;2.73;;
5279;SDS011;2663;53.588;10.010;2022-09-14T06:18:31;11.20;;;2.10;;
5279;SDS011;2663;53.588;10.010;2022-09-14T06:20:58;7.50;;;2.30;;
5279;SDS011;2663;53.588;10.010;2022-09-14T06:23:26;8.97;;;1.97;;
5279;SDS011;2663;53.588;10.010;2022-09-14T06:25:53;13.90;;;2.13;;
5279;SDS011;2663;53.588;10.010;2022-09-14T06:28:21;9.63;;;2.00;;
5279;SDS011;2663;53.588;10.010;2022-09-14T06:30:49;12.27;;;2.20;;
5279;SDS011;2663;53.588;10.010;2022-09-14T06:33:17;13.10;;;2.33;;
5279;SDS011;2663;53.588;10.010;2022-09-14T06:35:57;3.77;;;1.63;;
5279;SDS011;2663;53.588;10.010;2022-09-14T06:38:26;10.00;;;2.73;;
5279;SDS011;2663;53.588;10.010;2022-09-14T06:40:54;7.73;;;2.23;;
5279;SDS011;2663;53.588;10.010;2022-09-14T06:43:26;17.30;;;4.00;;
5279;SDS011;2663;53.588;10.010;2022-09-14T06:45:58;13.53;;;2.43;;
5279;SDS011;2663;53.588;10.010;2022-09-14T06:48:31;13.27;;;3.03;;
5279;SDS011;2663;53.588;10.010;2022-09-14T06:50:59;11.57;;;3.13;;
5279;SDS011;2663;53.588;10.010;2022-09-14T06:53:35;4.97;;;2.23;;
5279;SDS011;2663;53.588;10.010;2022-09-14T06:56:02;9.83;;;3.20;;
5279;SDS011;2663;53.588;10.010;2022-09-14T06:58:31;4.13;;;2.00;;
5279;SDS011;2663;53.588;10.010;2022-09-14T07:01:02;9.33;;;2.77;;
5279;SDS011;2663;53.588;10.010;2022-09-14T07:03:30;5.57;;;2.70;;
5279;SDS011;2663;53.588;10.010;2022-09-14T07:06:02;8.13;;;2.77;;
5279;SDS011;2663;53.588;10.010;2022-09-14T07:08:32;7.70;;;2.37;;
5279;SDS011;2663;53.588;10.010;2022-09-14T07:10:59;6.30;;;2.50;;
5279;SDS011;2663;53.588;10.010;2022-09-14T07:13:27;6.03;;;2.10;;
5279;SDS011;2663;53.588;10.010;2022-09-14T07:15:54;20.03;;;2.37;;
5279;SDS011;2663;53.588;10.010;2022-09-14T07:18:22;14.70;;;2.40;;
5279;SDS011;2663;53.588;10.010;2022-09-14T07:20:53;12.33;;;2.03;;
5279;SDS011;2663;53.588;10.010;2022-09-14T07:23:20;13.97;;;2.20;;
5279;SDS011;2663;53.588;10.010;2022-09-14T07:25:47;8.30;;;2.33;;
5279;SDS011;2663;53.588;10.010;2022-09-14T07:28:23;4.20;;;2.20;;
5279;SDS011;2663;53.588;10.010;2022-09-14T07:30:50;8.47;;;2.20;;
5279;SDS011;2663;53.588;10.010;2022-09-14T07:33:23;8.50;;;1.97;;
5279;SDS011;2663;53.588;10.010;2022-09-14T07:35:50;11.27;;;2.37;;
5279;SDS011;2663;53.588;10.010;2022-09-14T07:38:18;10.07;;;2.30;;
5279;SDS011;2663;53.588;10.010;2022-09-14T07:41:00;3.30;;;1.60;;
5279;SDS011;2663;53.588;10.010;2022-09-14T07:43:27;6.03;;;1.93;;
5279;SDS011;2663;53.588;10.010;2022-09-14T07:45:55;9.87;;;1.80;;
5279;SDS011;2663;53.588;10.010;2022-09-14T07:48:21;14.20;;;2.40;;
5279;SDS011;2663;53.588;10.010;2022-09-14T07:51:00;6.23;;;1.67;;
5279;SDS011;2663;53.588;10.010;2022-09-14T07:53:28;14.60;;;2.43;;
5279;SDS011;2663;53.588;10.010;2022-09-14T07:55:59;10.70;;;2.30;;
5279;SDS011;2663;53.588;10.010;2022-09-14T07:58:27;9.23;;;1.90;;
5279;SDS011;2663;53.588;10.010;2022-09-14T08:00:58;8.53;;;1.33;;
5279;SDS011;2663;53.588;10.010;2022-09-14T08:03:25;9.13;;;1.90;;
5279;SDS011;2663;53.588;10.010;2022-09-14T08:05:57;10.37;;;1.63;;
5279;SDS011;2663;53.588;10.010;2022-09-14T08:08:30;7.87;;;1.63;;
5279;SDS011;2663;53.588;10.010;2022-09-14T08:11:02;12.27;;;1.80;;
5279;SDS011;2663;53.588;10.010;2022-09-14T08:13:31;8.53;;;1.80;;
5279;SDS011;2663;53.588;10.010;2022-09-14T08:16:02;6.30;;;1.30;;
5279;SDS011;2663;53.588;10.010;2022-09-14T08:18:30;17.20;;;2.37;;
5279;SDS011;2663;53.588;10.010;2022-09-14T08:21:02;6.87;;;1.20;;
5279;SDS011;2663;53.588;10.010;2022-09-14T08:23:30;9.03;;;1.83;;
5279;SDS011;2663;53.588;10.010;2022-09-14T08:26:00;6.67;;;2.03;;
5279;SDS011;2663;53.588;10.010;2022-09-14T08:28:29;4.80;;;1.67;;
5279;SDS011;2663;53.588;10.010;2022-09-14T08:31:00;9.37;;;1.63;;
5279;SDS011;2663;53.588;10.010;2022-09-14T08:33:30;6.77;;;1.50;;
5279;SDS011;2663;53.588;10.010;2022-09-14T08:35:58;6.70;;;2.20;;
5279;SDS011;2663;53.588;10.010;2022-09-14T08:38:25;7.50;;;1.80;;
5279;SDS011;2663;53.588;10.010;2022-09-14T08:40:52;6.43;;;1.20;;
5279;SDS011;2663;53.588;10.010;2022-09-14T08:43:20;9.87;;;1.57;;
5279;SDS011;2663;53.588;10.010;2022-09-14T08:45:51;5.77;;;1.60;;
5279;SDS011;2663;53.588;10.010;2022-09-14T08:48:25;5.33;;;1.73;;
5279;SDS011;2663;53.588;10.010;2022-09-14T08:50:59;17.13;;;1.73;;
5279;SDS011;2663;53.588;10.010;2022-09-14T08:53:28;12.93;;;2.27;;
5279;SDS011;2663;53.588;10.010;2022-09-14T08:56:01;6.43;;;1.77;;
5279;SDS011;2663;53.588;10.010;2022-09-14T09:07:06;6.37;;;1.37;;
5279;SDS011;2663;53.588;10.010;2022-09-14T09:09:45;11.73;;;1.53;;
5279;SDS011;2663;53.588;10.010;2022-09-14T09:12:13;5.43;;;1.47;;
5279;SDS011;2663;53.588;10.010;2022-09-14T09:15:02;7.03;;;1.97;;
5279;SDS011;2663;53.588;10.010;2022-09-14T09:17:41;13.63;;;1.87;;
5279;SDS011;2663;53.588;10.010;2022-09-14T09:25:49;6.33;;;1.30;;
5279;SDS011;2663;53.588;10.010;2022-09-14T09:28:30;20.07;;;2.27;;
5279;SDS011;2663;53.588;10.010;2022-09-14T09:31:02;10.47;;;1.60;;
5279;SDS011;2663;53.588;10.010;2022-09-14T09:33:36;3.43;;;1.13;;
5279;SDS011;2663;53.588;10.010;2022-09-14T09:36:03;9.17;;;1.43;;
5279;SDS011;2663;53.588;10.010;2022-09-14T09:38:33;7.23;;;1.00;;
5279;SDS011;2663;53.588;10.010;2022-09-14T09:41:04;9.00;;;1.43;;
5279;SDS011;2663;53.588;10.010;2022-09-14T09:43:57;6.30;;;1.53;;
5279;SDS011;2663;53.588;10.010;2022-09-14T09:46:31;4.90;;;1.20;;
5279;SDS011;2663;53.588;10.010;2022-09-14T09:49:03;3.53;;;1.23;;
5279;SDS011;2663;53.588;10.010;2022-09-14T09:51:41;2.00;;;0.97;;
5279;SDS011;2663;53.588;10.010;2022-09-14T10:01:48;4.87;;;1.23;;
5279;SDS011;2663;53.588;10.010;2022-09-14T10:04:16;4.93;;;1.00;;
5279;SDS011;2663;53.588;10.010;2022-09-14T10:06:45;4.43;;;1.33;;
5279;SDS011;2663;53.588;10.010;2022-09-14T10:09:16;5.30;;;1.40;;
5279;SDS011;2663;53.588;10.010;2022-09-14T10:11:58;7.97;;;1.23;;
5279;SDS011;2663;53.588;10.010;2022-09-14T10:14:33;7.73;;;1.53;;
5279;SDS011;2663;53.588;10.010;2022-09-14T10:17:06;4.33;;;1.63;;
5279;SDS011;2663;53.588;10.010;2022-09-14T10:19:51;6.97;;;1.70;;
5279;SDS011;2663;53.588;10.010;2022-09-14T10:24:58;6.17;;;1.67;;
5279;SDS011;2663;53.588;10.010;2022-09-14T10:27:34;3.60;;;1.07;;
5279;SDS011;2663;53.588;10.010;2022-09-14T10:30:04;2.40;;;0.90;;
5279;SDS011;2663;53.588;10.010;2022-09-14T10:32:44;4.80;;;1.43;;
5279;SDS011;2663;53.588;10.010;2022-09-14T10:35:17;5.07;;;1.30;;
5279;SDS011;2663;53.588;10.010;2022-09-14T10:37:57;6.33;;;1.40;;
5279;SDS011;2663;53.588;10.010;2022-09-14T10:40:32;3.03;;;1.27;;
5279;SDS011;2663;53.588;10.010;2022-09-14T10:45:51;9.33;;;1.40;;
5279;SDS011;2663;53.588;10.010;2022-09-14T10:51:24;4.87;;;1.50;;
5279;SDS011;2663;53.588;10.010;2022-09-14T10:56:59;9.23;;;1.60;;
5279;SDS011;2663;53.588;10.010;2022-09-14T11:21:49;4.83;;;1.37;;
5279;SDS011;2663;53.588;10.010;2022-09-14T11:24:39;14.33;;;2.10;;
5279;SDS011;2663;53.588;10.010;2022-09-14T11:29:58;2.80;;;1.23;;
5279;SDS011;2663;53.588;10.010;2022-09-14T11:32:34;5.87;;;1.33;;
5279;SDS011;2663;53.588;10.010;2022-09-14T11:35:20;11.13;;;2.07;;
5279;SDS011;2663;53.588;10.010;2022-09-14T11:40:36;7.40;;;1.30;;
5279;SDS011;2663;53.588;10.010;2022-09-14T11:43:37;14.50;;;1.80;;
5279;SDS011;2663;53.588;10.010;2022-09-14T11:51:54;6.77;;;1.50;;
5279;SDS011;2663;53.588;10.010;2022-09-14T11:54:26;8.20;;;1.20;;
5279;SDS011;2663;53.588;10.010;2022-09-14T11:56:55;12.50;;;1.73;;
5279;SDS011;2663;53.588;10.010;2022-09-14T12:12:42;8.33;;;1.53;;
5279;SDS011;2663;53.588;10.010;2022-09-14T12:36:00;6.30;;;1.70;;
5279;SDS011;2663;53.588;10.010;2022-09-14T12:56:55;3.53;;;1.23;;
5279;SDS011;2663;53.588;10.010;2022-09-14T13:04:52;10.47;;;2.07;;
5279;SDS011;2663;53.588;10.010;2022-09-14T13:07:21;6.97;;;1.47;;
5279;SDS011;2663;53.588;10.010;2022-09-14T13:09:51;8.60;;;1.90;;
5279;SDS011;2663;53.588;10.010;2022-09-14T13:12:22;12.97;;;2.17;;
5279;SDS011;2663;53.588;10.010;2022-09-14T13:14:52;7.60;;;1.57;;
5279;SDS011;2663;53.588;10.010;2022-09-14T13:17:20;5.93;;;1.23;;
5279;SDS011;2663;53.588;10.010;2022-09-14T13:19:52;13.20;;;2.13;;
5279;SDS011;2663;53.588;10.010;2022-09-14T13:22:22;12.20;;;2.03;;
5279;SDS011;2663;53.588;10.010;2022-09-14T13:24:50;13.00;;;1.53;;
5279;SDS011;2663;53.588;10.010;2022-09-14T13:27:25;6.93;;;1.77;;
5279;SDS011;2663;53.588;10.010;2022-09-14T13:30:01;7.03;;;1.87;;
5279;SDS011;2663;53.588;10.010;2022-09-14T13:32:33;11.43;;;1.83;;
5279;SDS011;2663;53.588;10.010;2022-09-14T13:35:04;5.60;;;1.70;;
5279;SDS011;2663;53.588;10.010;2022-09-14T13:37:31;11.70;;;2.07;;
5279;SDS011;2663;53.588;10.010;2022-09-14T13:39:58;3.27;;;1.33;;
5279;SDS011;2663;53.588;10.010;2022-09-14T13:42:25;9.37;;;2.00;;
5279;SDS011;2663;53.588;10.010;2022-09-14T13:44:52;7.97;;;1.70;;
5279;SDS011;2663;53.588;10.010;2022-09-14T13:47:20;7.83;;;1.47;;
5279;SDS011;2663;53.588;10.010;2022-09-14T13:49:49;9.33;;;1.70;;
5279;SDS011;2663;53.588;10.010;2022-09-14T13:55:21;10.03;;;2.93;;
5279;SDS011;2663;53.588;10.010;2022-09-14T13:58:04;11.07;;;1.83;;
5279;SDS011;2663;53.588;10.010;2022-09-14T14:03:35;8.03;;;1.40;;
5279;SDS011;2663;53.588;10.010;2022-09-14T14:09:36;6.00;;;1.63;;
5279;SDS011;2663;53.588;10.010;2022-09-14T14:19:48;5.20;;;1.50;;
5279;SDS011;2663;53.588;10.010;2022-09-14T14:22:18;6.40;;;1.70;;
5279;SDS011;2663;53.588;10.010;2022-09-14T14:24:48;4.50;;;1.60;;
5279;SDS011;2663;53.588;10.010;2022-09-14T14:27:36;5.50;;;1.37;;
5279;SDS011;2663;53.588;10.010;2022-09-14T14:30:15;11.13;;;1.63;;
5279;SDS011;2663;53.588;10.010;2022-09-14T14:32:49;5.93;;;1.30;;
5279;SDS011;2663;53.588;10.010;2022-09-14T14:35:18;5.60;;;1.43;;
5279;SDS011;2663;53.588;10.010;2022-09-14T14:37:48;5.37;;;1.47;;
5279;SDS011;2663;53.588;10.010;2022-09-14T14:40:16;6.93;;;1.43;;
5279;SDS011;2663;53.588;10.010;2022-09-14T14:42:44;8.23;;;1.87;;
5279;SDS011;2663;53.588;10.010;2022-09-14T14:45:21;5.50;;;1.17;;
5279;SDS011;2663;53.588;10.010;2022-09-14T14:47:52;5.47;;;1.43;;
5279;SDS011;2663;53.588;10.010;2022-09-14T14:50:21;5.87;;;1.37;;
5279;SDS011;2663;53.588;10.010;2022-09-14T14:52:52;1.10;;;0.93;;
5279;SDS011;2663;53.588;10.010;2022-09-14T14:55:20;6.13;;;1.50;;
5279;SDS011;2663;53.588;10.010;2022-09-14T14:57:48;4.13;;;1.40;;
5279;SDS011;2663;53.588;10.010;2022-09-14T15:00:17;1.20;;;0.93;;
5279;SDS011;2663;53.588;10.010;2022-09-14T15:02:47;1.93;;;1.10;;
5279;SDS011;2663;53.588;10.010;2022-09-14T15:05:15;20.90;;;1.30;;
5279;SDS011;2663;53.588;10.010;2022-09-14T15:07:42;4.00;;;1.00;;
5279;SDS011;2663;53.588;10.010;2022-09-14T15:10:10;5.20;;;1.17;;
5279;SDS011;2663;53.588;10.010;2022-09-14T15:12:40;1.00;;;0.80;;
5279;SDS011;2663;53.588;10.010;2022-09-14T15:15:11;1.60;;;1.10;;
5279;SDS011;2663;53.588;10.010;2022-09-14T15:17:39;7.50;;;1.10;;
5279;SDS011;2663;53.588;10.010;2022-09-14T15:20:06;1.90;;;1.07;;
5279;SDS011;2663;53.588;10.010;2022-09-14T15:22:33;2.27;;;1.10;;
5279;SDS011;2663;53.588;10.010;2022-09-14T15:25:01;3.53;;;0.90;;
5279;SDS011;2663;53.588;10.010;2022-09-14T15:27:29;3.37;;;1.23;;
5279;SDS011;2663;53.588;10.010;2022-09-14T15:29:56;6.63;;;1.20;;
5279;SDS011;2663;53.588;10.010;2022-09-14T15:32:23;2.10;;;0.80;;
5279;SDS011;2663;53.588;10.010;2022-09-14T15:34:49;3.67;;;0.90;;
5279;SDS011;2663;53.588;10.010;2022-09-14T15:37:18;3.37;;;1.13;;
5279;SDS011;2663;53.588;10.010;2022-09-14T15:39:45;3.50;;;0.90;;
5279;SDS011;2663;53.588;10.010;2022-09-14T15:42:15;1.53;;;0.80;;
5279;SDS011;2663;53.588;10.010;2022-09-14T15:44:42;0.90;;;0.60;;
5279;SDS011;2663;53.588;10.010;2022-09-14T15:47:12;3.57;;;0.50;;
5279;SDS011;2663;53.588;10.010;2022-09-14T15:49:40;1.17;;;0.60;;
5279;SDS011;2663;53.588;10.010;2022-09-14T15:52:07;2.97;;;0.70;;
5279;SDS011;2663;53.588;10.010;2022-09-14T15:54:36;1.60;;;0.73;;
5279;SDS011;2663;53.588;10.010;2022-09-14T15:57:09;1.80;;;0.80;;
5279;SDS011;2663;53.588;10.010;2022-09-14T15:59:36;2.30;;;0.90;;
5279;SDS011;2663;53.588;10.010;2022-09-14T16:02:04;2.67;;;0.70;;
5279;SDS011;2663;53.588;10.010;2022-09-14T16:04:35;3.23;;;0.97;;
5279;SDS011;2663;53.588;10.010;2022-09-14T16:07:02;1.17;;;0.77;;
5279;SDS011;2663;53.588;10.010;2022-09-14T16:09:35;1.00;;;0.80;;
5279;SDS011;2663;53.588;10.010;2022-09-14T16:12:06;3.60;;;1.00;;
5279;SDS011;2663;53.588;10.010;2022-09-14T16:14:33;3.23;;;0.93;;
5279;SDS011;2663;53.588;10.010;2022-09-14T16:17:00;1.93;;;0.70;;
5279;SDS011;2663;53.588;10.010;2022-09-14T16:19:27;2.63;;;0.70;;
5279;SDS011;2663;53.588;10.010;2022-09-14T16:21:54;1.27;;;0.80;;
5279;SDS011;2663;53.588;10.010;2022-09-14T16:24:21;4.63;;;0.80;;
5279;SDS011;2663;53.588;10.010;2022-09-14T16:26:49;3.73;;;0.93;;
5279;SDS011;2663;53.588;10.010;2022-09-14T16:29:16;6.27;;;1.10;;
5279;SDS011;2663;53.588;10.010;2022-09-14T16:31:45;3.53;;;0.93;;
5279;SDS011;2663;53.588;10.010;2022-09-14T16:34:14;2.87;;;1.00;;
5279;SDS011;2663;53.588;10.010;2022-09-14T16:36:50;3.43;;;1.00;;
5279;SDS011;2663;53.588;10.010;2022-09-14T16:39:18;2.90;;;0.90;;
5279;SDS011;2663;53.588;10.010;2022-09-14T16:41:50;2.30;;;1.03;;
5279;SDS011;2663;53.588;10.010;2022-09-14T16:44:19;1.60;;;0.77;;
5279;SDS011;2663;53.588;10.010;2022-09-14T16:46:49;1.90;;;0.80;;
5279;SDS011;2663;53.588;10.010;2022-09-14T16:49:16;2.80;;;0.87;;
5279;SDS011;2663;53.588;10.010;2022-09-14T16:51:48;4.50;;;1.00;;
5279;SDS011;2663;53.588;10.010;2022-09-14T16:54:15;4.73;;;1.17;;
5279;SDS011;2663;53.588;10.010;2022-09-14T16:56:44;1.47;;;0.73;;
5279;SDS011;2663;53.588;10.010;2022-09-14T16:59:11;2.30;;;0.80;;
5279;SDS011;2663;53.588;10.010;2022-09-14T17:01:40;2.87;;;1.20;;
5279;SDS011;2663;53.588;10.010;2022-09-14T17:04:09;1.57;;;0.90;;
5279;SDS011;2663;53.588;10.010;2022-09-14T17:06:39;1.13;;;0.93;;
5279;SDS011;2663;53.588;10.010;2022-09-14T17:09:09;2.40;;;0.90;;
5279;SDS011;2663;53.588;10.010;2022-09-14T17:11:38;4.40;;;1.00;;
5279;SDS011;2663;53.588;10.010;2022-09-14T17:14:05;5.77;;;1.20;;
5279;SDS011;2663;53.588;10.010;2022-09-14T17:16:33;8.13;;;1.10;;
5279;SDS011;2663;53.588;10.010;2022-09-14T17:19:02;0.80;;;0.77;;
5279;SDS011;2663;53.588;10.010;2022-09-14T17:21:30;3.53;;;1.43;;
5279;SDS011;2663;53.588;10.010;2022-09-14T17:23:59;1.13;;;0.70;;
5279;SDS011;2663;53.588;10.010;2022-09-14T17:26:27;4.53;;;1.90;;
5279;SDS011;2663;53.588;10.010;2022-09-14T17:28:54;4.37;;;1.23;;
5279;SDS011;2663;53.588;10.010;2022-09-14T17:31:22;2.70;;;1.60;;
5279;SDS011;2663;53.588;10.010;2022-09-14T17:33:52;2.97;;;0.80;;
5279;SDS011;2663;53.588;10.010;2022-09-14T17:36:20;1.10;;;0.70;;
5279;SDS011;2663;53.588;10.010;2022-09-14T17:38:47;2.90;;;0.80;;
5279;SDS011;2663;53.588;10.010;2022-09-14T17:41:20;1.87;;;0.90;;
5279;SDS011;2663;53.588;10.010;2022-09-14T17:43:51;3.17;;;1.30;;
5279;SDS011;2663;53.588;10.010;2022-09-14T17:46:19;1.83;;;0.90;;
5279;SDS011;2663;53.588;10.010;2022-09-14T17:48:48;3.57;;;1.27;;
5279;SDS011;2663;53.588;10.010;2022-09-14T17:51:19;3.70;;;1.20;;
5279;SDS011;2663;53.588;10.010;2022-09-14T17:53:48;3.53;;;1.10;;
5279;SDS011;2663;53.588;10.010;2022-09-14T17:56:18;4.10;;;1.33;;
5279;SDS011;2663;53.588;10.010;2022-09-14T17:58:46;2.87;;;1.30;;
5279;SDS011;2663;53.588;10.010;2022-09-14T18:01:15;2.10;;;1.00;;
5279;SDS011;2663;53.588;10.010;2022-09-14T18:03:48;2.20;;;1.07;;
5279;SDS011;2663;53.588;10.010;2022-09-14T18:06:17;3.63;;;1.20;;
5279;SDS011;2663;53.588;10.010;2022-09-14T18:08:44;1.97;;;1.07;;
5279;SDS011;2663;53.588;10.010;2022-09-14T18:11:13;1.50;;;1.23;;
5279;SDS011;2663;53.588;10.010;2022-09-14T18:13:42;2.10;;;1.00;;